createdAt,value
2019-02-09T00:00:19.112Z,3.00
2019-02-09T00:02:46.535Z,3.80
2019-02-09T00:05:14.357Z,4.30
2019-02-09T00:07:41.580Z,4.03
2019-02-09T00:10:09.001Z,4.13
2019-02-09T00:12:36.217Z,4.40
2019-02-09T00:15:04.900Z,3.43
2019-02-09T00:17:32.181Z,3.60
2019-02-09T00:19:59.399Z,3.63
2019-02-09T00:22:26.625Z,3.83
2019-02-09T00:24:53.894Z,3.50
2019-02-09T00:27:21.149Z,2.90
2019-02-09T00:29:48.445Z,3.17
2019-02-09T00:32:15.682Z,3.53
2019-02-09T00:34:42.891Z,2.90
2019-02-09T00:37:10.150Z,3.27
2019-02-09T00:39:37.896Z,3.27
2019-02-09T00:42:05.288Z,3.77
2019-02-09T00:44:32.566Z,2.90
2019-02-09T00:46:59.797Z,2.97
2019-02-09T00:49:27.116Z,2.90
2019-02-09T00:51:54.395Z,2.80
2019-02-09T00:54:21.655Z,2.40
2019-02-09T00:56:48.883Z,2.87
2019-02-09T00:59:16.170Z,2.53
2019-02-09T01:01:43.391Z,2.97
2019-02-09T01:04:10.634Z,2.93
2019-02-09T01:06:37.922Z,2.87
2019-02-09T01:09:10.499Z,2.97
2019-02-09T01:11:37.728Z,2.97
2019-02-09T01:14:04.987Z,3.13
2019-02-09T01:16:32.211Z,3.33
2019-02-09T01:18:59.474Z,3.03
2019-02-09T01:21:26.694Z,3.23
2019-02-09T01:23:53.913Z,3.30
2019-02-09T01:26:21.211Z,3.03
2019-02-09T01:28:48.425Z,3.20
2019-02-09T01:31:15.670Z,3.13
2019-02-09T01:33:42.968Z,3.20
2019-02-09T01:36:10.226Z,3.30
2019-02-09T01:38:37.434Z,3.00
2019-02-09T01:41:05.820Z,3.07
2019-02-09T01:43:33.045Z,3.40
2019-02-09T01:46:00.333Z,3.13
2019-02-09T01:48:27.619Z,3.00
2019-02-09T01:50:54.887Z,3.30
2019-02-09T01:53:22.153Z,3.43
2019-02-09T01:55:49.376Z,3.13
2019-02-09T01:58:16.595Z,3.57
2019-02-09T02:00:43.851Z,3.10
2019-02-09T02:03:11.295Z,3.10
2019-02-09T02:05:38.573Z,3.50
2019-02-09T02:08:06.183Z,3.60
2019-02-09T02:10:35.213Z,2.53
2019-02-09T02:13:03.799Z,3.60
2019-02-09T02:15:31.550Z,3.20
2019-02-09T02:17:59.036Z,2.63
2019-02-09T02:20:27.200Z,3.10
2019-02-09T02:22:54.543Z,2.27
2019-02-09T02:25:23.649Z,2.70
2019-02-09T02:27:51.177Z,2.90
2019-02-09T02:30:26.359Z,2.77
2019-02-09T02:32:53.748Z,3.27
2019-02-09T02:35:20.986Z,3.00
2019-02-09T02:37:48.208Z,2.73
2019-02-09T02:40:16.611Z,2.87
2019-02-09T02:42:43.984Z,2.97
2019-02-09T02:45:12.619Z,3.13
2019-02-09T02:47:39.886Z,2.83
2019-02-09T02:50:09.232Z,3.10
2019-02-09T02:52:36.525Z,2.93
2019-02-09T02:55:04.692Z,2.47
2019-02-09T02:57:31.911Z,3.67
2019-02-09T02:59:59.155Z,3.13
2019-02-09T03:02:26.446Z,2.67
2019-02-09T03:04:53.660Z,3.40
2019-02-09T03:07:20.887Z,2.90
2019-02-09T03:09:48.175Z,2.47
2019-02-09T03:12:15.410Z,2.93
2019-02-09T03:14:42.636Z,3.33
2019-02-09T03:17:09.908Z,2.90
2019-02-09T03:19:37.124Z,2.90
2019-02-09T03:22:04.330Z,2.83
2019-02-09T03:24:31.606Z,2.37
2019-02-09T03:26:58.823Z,3.53
2019-02-09T03:29:26.061Z,2.77
2019-02-09T03:31:53.337Z,2.60
2019-02-09T03:34:20.555Z,2.63
2019-02-09T03:36:47.792Z,2.20
2019-02-09T03:39:15.077Z,2.83
2019-02-09T03:41:42.302Z,2.50
2019-02-09T03:44:09.538Z,2.90
2019-02-09T03:46:36.912Z,3.13
2019-02-09T03:49:04.388Z,2.77
2019-02-09T03:51:31.746Z,3.10
2019-02-09T03:53:59.032Z,3.13
2019-02-09T03:56:26.286Z,3.10
2019-02-09T03:58:53.529Z,2.87
2019-02-09T04:01:20.811Z,2.80
2019-02-09T04:03:48.043Z,3.37
2019-02-09T04:06:15.342Z,3.13
2019-02-09T04:08:42.570Z,3.57
2019-02-09T04:11:09.850Z,3.37
2019-02-09T04:13:37.144Z,3.23
2019-02-09T04:16:04.456Z,3.40
2019-02-09T04:18:31.675Z,3.07
2019-02-09T04:20:58.935Z,3.47
2019-02-09T04:23:26.168Z,3.33
2019-02-09T04:25:53.448Z,4.10
2019-02-09T04:28:20.748Z,2.87
2019-02-09T04:30:48.036Z,2.97
2019-02-09T04:33:15.249Z,3.07
2019-02-09T04:35:42.522Z,3.27
2019-02-09T04:38:09.743Z,3.23
2019-02-09T04:40:37.063Z,3.03
2019-02-09T04:43:04.356Z,3.23
2019-02-09T04:45:31.647Z,3.07
2019-02-09T04:47:58.937Z,2.60
2019-02-09T04:50:26.214Z,3.40
2019-02-09T04:52:53.682Z,2.73
2019-02-09T04:55:22.297Z,3.07
2019-02-09T04:57:49.633Z,3.70
2019-02-09T05:00:19.297Z,3.10
2019-02-09T05:02:46.646Z,3.23
2019-02-09T05:05:13.979Z,3.53
2019-02-09T05:07:41.327Z,2.40
2019-02-09T05:10:10.027Z,3.57
2019-02-09T05:12:37.250Z,3.47
2019-02-09T05:15:06.232Z,3.57
2019-02-09T05:17:33.479Z,3.33
2019-02-09T05:20:00.707Z,3.57
2019-02-09T05:22:27.944Z,3.10
2019-02-09T05:24:55.206Z,3.10
2019-02-09T05:27:22.630Z,3.23
2019-02-09T05:29:49.892Z,2.90
2019-02-09T05:32:17.195Z,3.17
2019-02-09T05:34:44.409Z,3.40
2019-02-09T05:37:11.673Z,3.17
2019-02-09T05:39:38.900Z,3.90
2019-02-09T05:42:06.120Z,2.97
2019-02-09T05:44:33.393Z,3.47
2019-02-09T05:47:00.709Z,3.80
2019-02-09T05:49:27.954Z,3.73
2019-02-09T05:51:55.226Z,4.00
2019-02-09T05:54:22.444Z,3.03
2019-02-09T05:56:49.680Z,4.07
2019-02-09T05:59:16.961Z,3.07
2019-02-09T06:01:44.182Z,3.27
2019-02-09T06:04:11.403Z,3.43
2019-02-09T06:06:38.669Z,3.40
2019-02-09T06:09:07.226Z,3.50
2019-02-09T06:11:34.471Z,5.13
2019-02-09T06:14:01.763Z,3.50
2019-02-09T06:16:30.755Z,3.70
2019-02-09T06:18:58.119Z,3.90
2019-02-09T06:21:25.389Z,3.80
2019-02-09T06:23:52.633Z,3.47
2019-02-09T06:26:19.851Z,3.67
2019-02-09T06:28:47.131Z,3.47
2019-02-09T06:31:14.375Z,2.90
2019-02-09T06:33:41.687Z,3.43
2019-02-09T06:36:09.031Z,3.80
2019-02-09T06:38:36.301Z,3.40
2019-02-09T06:41:03.743Z,3.20
2019-02-09T06:43:30.972Z,5.10
2019-02-09T06:45:58.228Z,3.47
2019-02-09T06:48:27.363Z,3.87
2019-02-09T06:50:56.669Z,3.70
2019-02-09T06:53:28.399Z,3.87
2019-02-09T06:55:55.595Z,3.93
2019-02-09T06:58:26.203Z,3.30
2019-02-09T07:00:53.965Z,3.17
2019-02-09T07:03:26.488Z,3.20
2019-02-09T07:05:54.368Z,4.20
2019-02-09T07:08:24.589Z,4.00
2019-02-09T07:10:52.546Z,3.73
2019-02-09T07:13:25.789Z,4.00
2019-02-09T07:15:53.112Z,3.33
2019-02-09T07:18:20.348Z,3.47
2019-02-09T07:20:47.607Z,3.27
2019-02-09T07:23:14.935Z,3.30
2019-02-09T07:25:42.162Z,3.03
2019-02-09T07:28:09.458Z,3.60
2019-02-09T07:30:36.779Z,3.40
2019-02-09T07:33:05.046Z,4.00
2019-02-09T07:35:32.329Z,4.10
2019-02-09T07:38:00.084Z,3.30
2019-02-09T07:40:35.428Z,3.17
2019-02-09T07:43:03.075Z,3.60
2019-02-09T07:45:30.613Z,3.73
2019-02-09T07:47:58.057Z,3.20
2019-02-09T07:50:25.584Z,4.67
2019-02-09T07:52:52.826Z,3.30
2019-02-09T07:55:20.970Z,3.50
2019-02-09T07:57:48.236Z,3.17
2019-02-09T08:00:23.683Z,3.20
2019-02-09T08:02:51.081Z,3.80
2019-02-09T08:05:18.900Z,3.70
2019-02-09T08:07:46.143Z,4.07
2019-02-09T08:10:15.969Z,3.60
2019-02-09T08:12:43.295Z,3.17
2019-02-09T08:15:14.361Z,3.20
2019-02-09T08:17:41.645Z,3.53
2019-02-09T08:20:10.195Z,3.87
2019-02-09T08:22:37.454Z,3.30
2019-02-09T08:25:05.452Z,3.40
2019-02-09T08:27:32.661Z,3.30
2019-02-09T08:29:59.875Z,3.57
2019-02-09T08:32:27.131Z,3.33
2019-02-09T08:34:54.356Z,4.13
2019-02-09T08:37:21.636Z,3.20
2019-02-09T08:39:54.284Z,4.20
2019-02-09T08:42:26.931Z,3.63
2019-02-09T08:44:58.660Z,3.90
2019-02-09T08:47:29.313Z,3.70
2019-02-09T08:49:56.535Z,5.03
2019-02-09T08:52:23.960Z,4.83
2019-02-09T08:54:51.263Z,3.10
2019-02-09T08:57:18.488Z,3.67
2019-02-09T08:59:45.712Z,3.73
2019-02-09T09:02:20.224Z,4.13
2019-02-09T09:04:42.153Z,4.13
2019-02-09T09:07:09.371Z,4.87
2019-02-09T09:09:36.641Z,4.00
2019-02-09T09:12:03.992Z,4.00
2019-02-09T09:14:31.326Z,4.23
2019-02-09T09:16:59.522Z,3.93
2019-02-09T09:19:28.613Z,4.97
2019-02-09T09:21:55.835Z,3.70
2019-02-09T09:24:23.109Z,3.93
2019-02-09T09:26:50.327Z,4.03
2019-02-09T09:29:17.592Z,4.73
2019-02-09T09:31:44.885Z,4.77
2019-02-09T09:34:12.114Z,4.20
2019-02-09T09:36:39.447Z,4.30
2019-02-09T09:39:08.244Z,4.10
2019-02-09T09:41:35.565Z,4.73
2019-02-09T09:44:03.307Z,4.00
2019-02-09T09:46:30.570Z,4.30
2019-02-09T09:48:57.833Z,4.70
2019-02-09T09:51:25.099Z,4.77
2019-02-09T09:53:52.415Z,4.40
2019-02-09T09:56:19.665Z,5.00
2019-02-09T09:58:46.892Z,4.50
2019-02-09T10:01:14.213Z,4.80
2019-02-09T10:03:41.456Z,4.43
2019-02-09T10:06:08.685Z,4.20
2019-02-09T10:08:35.928Z,4.90
2019-02-09T10:11:03.265Z,4.30
2019-02-09T10:13:30.858Z,4.87
2019-02-09T10:15:58.079Z,4.73
2019-02-09T10:18:25.316Z,4.97
2019-02-09T10:20:52.611Z,4.40
2019-02-09T10:23:19.842Z,4.50
2019-02-09T10:25:47.072Z,4.60
2019-02-09T10:28:14.344Z,4.17
2019-02-09T10:30:41.568Z,4.60
2019-02-09T10:33:08.836Z,4.27
2019-02-09T10:35:36.077Z,4.70
2019-02-09T10:38:03.407Z,5.37
2019-02-09T10:40:32.030Z,4.40
2019-02-09T10:43:00.475Z,4.83
2019-02-09T10:45:28.791Z,4.63
2019-02-09T10:47:56.613Z,3.90
2019-02-09T10:50:29.027Z,3.40
2019-02-09T10:53:02.036Z,4.00
2019-02-09T10:55:30.240Z,4.03
2019-02-09T10:57:57.570Z,3.93
2019-02-09T11:00:27.868Z,4.07
2019-02-09T11:02:55.928Z,3.83
2019-02-09T11:05:23.427Z,3.80
2019-02-09T11:07:50.672Z,4.07
2019-02-09T11:10:18.828Z,3.20
2019-02-09T11:12:46.049Z,3.50
2019-02-09T11:15:15.677Z,3.70
2019-02-09T11:17:42.941Z,4.50
2019-02-09T11:20:12.409Z,3.80
2019-02-09T11:22:39.646Z,4.47
2019-02-09T11:25:07.677Z,3.87
2019-02-09T11:27:34.907Z,4.40
2019-02-09T11:30:02.483Z,3.97
2019-02-09T11:32:29.762Z,4.40
2019-02-09T11:34:57.029Z,4.40
2019-02-09T11:37:24.242Z,3.73
2019-02-09T11:39:51.517Z,4.57
2019-02-09T11:42:18.822Z,4.20
2019-02-09T11:44:46.061Z,3.90
2019-02-09T11:47:13.339Z,4.93
2019-02-09T11:49:40.556Z,4.00
2019-02-09T11:52:07.976Z,4.07
2019-02-09T11:54:35.266Z,3.83
2019-02-09T11:57:02.494Z,3.50
2019-02-09T11:59:29.729Z,4.07
2019-02-09T12:01:57.003Z,5.00
2019-02-09T12:04:24.246Z,3.03
2019-02-09T12:06:51.587Z,4.10
2019-02-09T12:09:18.912Z,3.70
2019-02-09T12:11:46.125Z,4.50
2019-02-09T12:14:13.345Z,5.20
2019-02-09T12:16:40.655Z,4.40
2019-02-09T12:19:07.873Z,4.43
2019-02-09T12:21:35.123Z,4.80
2019-02-09T12:24:02.353Z,4.67
2019-02-09T12:26:29.622Z,4.30
2019-02-09T12:28:56.874Z,4.53
2019-02-09T12:31:24.120Z,3.93
2019-02-09T12:33:51.351Z,3.90
2019-02-09T12:36:18.629Z,4.07
2019-02-09T12:38:45.860Z,3.57
2019-02-09T12:41:13.115Z,4.47
2019-02-09T12:43:40.435Z,4.40
2019-02-09T12:46:07.656Z,4.00
2019-02-09T12:48:34.868Z,4.13
2019-02-09T12:51:02.178Z,3.80
2019-02-09T12:53:29.523Z,3.43
2019-02-09T12:55:56.734Z,4.00
2019-02-09T12:58:23.938Z,4.20
2019-02-09T13:00:51.213Z,3.30
2019-02-09T13:03:21.022Z,3.97
2019-02-09T13:05:48.264Z,4.37
2019-02-09T13:08:15.517Z,3.70
2019-02-09T13:10:42.755Z,4.00
2019-02-09T13:13:09.986Z,3.50
2019-02-09T13:15:37.251Z,3.63
2019-02-09T13:18:05.076Z,3.30
2019-02-09T13:20:32.663Z,3.10
2019-02-09T13:23:00.141Z,3.43
2019-02-09T13:25:27.336Z,3.90
2019-02-09T13:27:54.862Z,4.17
2019-02-09T13:30:27.610Z,4.23
2019-02-09T13:32:54.871Z,4.13
2019-02-09T13:35:22.192Z,4.60
2019-02-09T13:37:49.518Z,4.40
2019-02-09T13:40:17.956Z,4.20
2019-02-09T13:42:45.186Z,3.50
2019-02-09T13:45:21.662Z,3.50
2019-02-09T13:47:50.478Z,4.23
2019-02-09T13:50:17.769Z,3.10
2019-02-09T13:52:45.025Z,4.03
2019-02-09T13:55:12.638Z,3.23
2019-02-09T13:57:39.968Z,3.90
2019-02-09T14:00:11.340Z,3.57
2019-02-09T14:02:38.691Z,3.63
2019-02-09T14:05:06.232Z,3.60
2019-02-09T14:07:33.481Z,3.90
2019-02-09T14:10:00.715Z,3.37
2019-02-09T14:12:27.940Z,3.30
2019-02-09T14:14:55.231Z,3.87
2019-02-09T14:17:22.465Z,4.03
2019-02-09T14:19:49.695Z,4.17
2019-02-09T14:22:16.977Z,4.37
2019-02-09T14:24:44.262Z,4.30
2019-02-09T14:27:11.517Z,3.63
2019-02-09T14:29:38.829Z,3.73
2019-02-09T14:32:06.094Z,3.30
2019-02-09T14:34:33.319Z,3.73
2019-02-09T14:37:00.549Z,3.77
2019-02-09T14:39:27.856Z,3.60
2019-02-09T14:41:55.100Z,3.30
2019-02-09T14:44:22.336Z,4.53
2019-02-09T14:46:49.667Z,3.33
2019-02-09T14:49:16.941Z,3.87
2019-02-09T14:51:44.208Z,4.20
2019-02-09T14:54:12.009Z,3.87
2019-02-09T14:56:39.382Z,4.00
2019-02-09T14:59:06.648Z,4.27
2019-02-09T15:01:33.893Z,3.80
2019-02-09T15:04:02.750Z,4.60
2019-02-09T15:06:30.365Z,3.93
2019-02-09T15:08:57.637Z,4.20
2019-02-09T15:11:24.857Z,3.47
2019-02-09T15:13:52.133Z,3.70
2019-02-09T15:16:30.484Z,4.30
2019-02-09T15:18:57.777Z,4.23
2019-02-09T15:21:24.996Z,3.77
2019-02-09T15:23:52.241Z,4.67
2019-02-09T15:26:19.521Z,4.17
2019-02-09T15:28:46.746Z,3.93
2019-02-09T15:31:14.139Z,3.90
2019-02-09T15:33:41.406Z,3.80
2019-02-09T15:36:08.668Z,4.13
2019-02-09T15:38:35.921Z,4.03
2019-02-09T15:41:03.307Z,3.43
2019-02-09T15:43:30.547Z,3.23
2019-02-09T15:45:57.818Z,3.87
2019-02-09T15:48:25.117Z,4.27
2019-02-09T15:50:52.361Z,3.90
2019-02-09T15:53:19.641Z,3.83
2019-02-09T15:55:46.940Z,4.10
2019-02-09T15:58:14.195Z,3.53
2019-02-09T16:00:41.404Z,4.47
2019-02-09T16:03:08.692Z,3.73
2019-02-09T16:05:35.947Z,3.43
2019-02-09T16:08:03.993Z,4.47
2019-02-09T16:10:31.247Z,4.07
2019-02-09T16:12:58.458Z,3.80
2019-02-09T16:15:26.247Z,3.73
2019-02-09T16:17:53.541Z,4.03
2019-02-09T16:20:21.513Z,3.80
2019-02-09T16:22:49.046Z,3.57
2019-02-09T16:25:17.247Z,4.60
2019-02-09T16:27:44.878Z,4.13
2019-02-09T16:30:18.558Z,3.77
2019-02-09T16:32:45.261Z,3.90
2019-02-09T16:35:13.935Z,4.63
2019-02-09T16:37:41.319Z,3.70
2019-02-09T16:40:11.603Z,3.53
2019-02-09T16:42:38.860Z,3.47
2019-02-09T16:45:08.452Z,4.00
2019-02-09T16:47:35.741Z,3.77
2019-02-09T16:50:04.310Z,3.73
2019-02-09T16:52:31.718Z,3.30
2019-02-09T16:54:59.038Z,3.53
2019-02-09T16:57:26.327Z,3.77
2019-02-09T16:59:53.590Z,3.30
2019-02-09T17:02:20.808Z,3.27
2019-02-09T17:04:48.053Z,3.60
2019-02-09T17:07:15.340Z,3.47
2019-02-09T17:09:42.564Z,4.03
2019-02-09T17:12:09.761Z,3.77
2019-02-09T17:14:37.019Z,3.43
2019-02-09T17:17:04.450Z,3.83
2019-02-09T17:19:31.677Z,3.97
2019-02-09T17:21:58.961Z,3.63
2019-02-09T17:24:26.160Z,3.80
2019-02-09T17:26:53.363Z,3.70
2019-02-09T17:29:20.701Z,3.53
2019-02-09T17:31:47.933Z,3.87
2019-02-09T17:34:15.146Z,3.47
2019-02-09T17:36:42.382Z,3.63
2019-02-09T17:39:09.600Z,3.70
2019-02-09T17:41:36.870Z,3.00
2019-02-09T17:44:04.199Z,4.10
2019-02-09T17:46:31.451Z,3.53
2019-02-09T17:48:58.769Z,4.13
2019-02-09T17:51:25.986Z,3.70
2019-02-09T17:53:53.268Z,3.47
2019-02-09T17:56:20.555Z,3.70
2019-02-09T17:58:47.777Z,4.13
2019-02-09T18:01:15.153Z,4.90
2019-02-09T18:03:42.403Z,6.23
2019-02-09T18:06:09.619Z,4.83
2019-02-09T18:08:37.359Z,4.13
2019-02-09T18:11:04.769Z,4.57
2019-02-09T18:13:32.000Z,4.10
2019-02-09T18:15:59.316Z,3.80
2019-02-09T18:18:26.664Z,3.90
2019-02-09T18:20:53.872Z,4.50
2019-02-09T18:23:21.249Z,3.57
2019-02-09T18:25:48.460Z,4.27
2019-02-09T18:28:15.700Z,3.90
2019-02-09T18:30:42.931Z,3.37
2019-02-09T18:33:10.195Z,3.53
2019-02-09T18:35:37.517Z,3.83
2019-02-09T18:38:04.764Z,4.77
2019-02-09T18:40:32.033Z,4.27
2019-02-09T18:42:59.265Z,4.10
2019-02-09T18:45:26.841Z,4.30
2019-02-09T18:47:54.254Z,3.93
2019-02-09T18:50:24.008Z,5.10
2019-02-09T18:52:51.584Z,3.70
2019-02-09T18:55:20.515Z,4.23
2019-02-09T18:57:47.870Z,3.70
2019-02-09T19:00:20.503Z,4.00
2019-02-09T19:02:47.766Z,3.97
2019-02-09T19:05:15.099Z,4.73
2019-02-09T19:07:42.312Z,3.67
2019-02-09T19:10:13.118Z,4.10
2019-02-09T19:12:40.388Z,4.13
2019-02-09T19:15:08.128Z,5.20
2019-02-09T19:17:35.379Z,4.60
2019-02-09T19:20:02.958Z,4.33
2019-02-09T19:22:30.195Z,3.70
2019-02-09T19:24:57.799Z,4.50
2019-02-09T19:27:25.076Z,3.57
2019-02-09T19:29:52.526Z,3.70
2019-02-09T19:32:19.763Z,3.70
2019-02-09T19:34:47.024Z,3.57
2019-02-09T19:37:14.264Z,3.37
2019-02-09T19:39:41.515Z,3.80
2019-02-09T19:42:08.758Z,3.50
2019-02-09T19:44:35.986Z,3.43
2019-02-09T19:47:03.354Z,4.23
2019-02-09T19:49:30.623Z,3.03
2019-02-09T19:51:57.888Z,4.27
2019-02-09T19:54:25.318Z,3.83
2019-02-09T19:56:52.599Z,3.57
2019-02-09T19:59:19.834Z,2.60
2019-02-09T20:01:47.097Z,3.23
2019-02-09T20:04:14.306Z,3.10
2019-02-09T20:06:41.520Z,3.40
2019-02-09T20:09:09.121Z,3.50
2019-02-09T20:11:36.379Z,3.40
2019-02-09T20:14:04.248Z,3.53
2019-02-09T20:16:31.498Z,2.87
2019-02-09T20:18:58.709Z,3.30
2019-02-09T20:21:25.941Z,4.23
2019-02-09T20:23:53.217Z,3.43
2019-02-09T20:26:20.433Z,3.30
2019-02-09T20:28:47.649Z,3.63
2019-02-09T20:31:14.917Z,4.17
2019-02-09T20:33:42.192Z,4.30
2019-02-09T20:36:09.393Z,4.03
2019-02-09T20:38:36.649Z,4.57
2019-02-09T20:41:05.781Z,3.90
2019-02-09T20:43:33.043Z,4.87
2019-02-09T20:46:00.392Z,4.00
2019-02-09T20:48:27.683Z,4.17
2019-02-09T20:50:54.926Z,4.30
2019-02-09T20:53:22.181Z,4.70
2019-02-09T20:55:49.454Z,4.57
2019-02-09T20:58:16.875Z,5.10
2019-02-09T21:00:44.210Z,4.03
2019-02-09T21:03:11.492Z,4.37
2019-02-09T21:05:38.724Z,4.27
2019-02-09T21:08:06.333Z,4.33
2019-02-09T21:10:33.653Z,4.13
2019-02-09T21:13:00.882Z,5.03
2019-02-09T21:15:28.356Z,4.13
2019-02-09T21:17:55.737Z,5.33
2019-02-09T21:20:23.335Z,4.57
2019-02-09T21:22:50.542Z,4.80
2019-02-09T21:25:22.766Z,4.83
2019-02-09T21:27:50.020Z,4.57
2019-02-09T21:30:18.184Z,5.43
2019-02-09T21:32:45.466Z,5.23
2019-02-09T21:35:13.043Z,5.90
2019-02-09T21:37:40.255Z,5.03
2019-02-09T21:40:10.427Z,4.90
2019-02-09T21:42:37.644Z,5.23
2019-02-09T21:45:06.745Z,4.80
2019-02-09T21:47:34.071Z,5.23
2019-02-09T21:50:01.260Z,5.23
2019-02-09T21:52:28.531Z,5.07
2019-02-09T21:54:55.836Z,4.50
2019-02-09T21:57:23.172Z,5.57
2019-02-09T21:59:51.171Z,5.27
2019-02-09T22:02:18.585Z,4.83
2019-02-09T22:04:45.831Z,5.17
2019-02-09T22:07:13.070Z,4.70
2019-02-09T22:09:40.289Z,5.63
2019-02-09T22:12:07.765Z,5.23
2019-02-09T22:14:35.147Z,5.60
2019-02-09T22:17:02.401Z,6.13
2019-02-09T22:19:29.667Z,4.73
2019-02-09T22:21:57.167Z,5.77
2019-02-09T22:24:24.611Z,4.73
2019-02-09T22:26:51.905Z,4.93
2019-02-09T22:29:22.202Z,4.90
2019-02-09T22:31:49.435Z,4.73
2019-02-09T22:34:16.679Z,4.57
2019-02-09T22:36:44.068Z,4.93
2019-02-09T22:39:11.266Z,5.77
2019-02-09T22:41:38.541Z,5.10
2019-02-09T22:44:06.859Z,4.93
2019-02-09T22:46:34.083Z,5.60
2019-02-09T22:49:01.306Z,5.27
2019-02-09T22:51:28.563Z,5.83
2019-02-09T22:53:55.785Z,5.37
2019-02-09T22:56:23.263Z,5.40
2019-02-09T22:58:50.502Z,5.37
2019-02-09T23:01:30.737Z,5.73
2019-02-09T23:04:18.394Z,6.00
2019-02-09T23:07:01.702Z,6.40
2019-02-09T23:09:30.373Z,4.80
2019-02-09T23:11:57.575Z,5.10
2019-02-09T23:14:24.844Z,4.70
2019-02-09T23:16:52.389Z,5.13
2019-02-09T23:19:19.591Z,4.47
2019-02-09T23:21:50.209Z,5.53
2019-02-09T23:24:18.201Z,4.90
2019-02-09T23:26:45.455Z,4.60
2019-02-09T23:29:12.730Z,4.23
2019-02-09T23:31:39.964Z,5.10
2019-02-09T23:34:07.208Z,5.20
2019-02-09T23:36:34.503Z,5.77
2019-02-09T23:39:01.758Z,5.07
2019-02-09T23:41:28.984Z,4.60
2019-02-09T23:43:56.262Z,4.57
2019-02-09T23:46:23.474Z,4.97
2019-02-09T23:48:50.778Z,4.40
2019-02-09T23:51:18.124Z,4.90
2019-02-09T23:53:45.351Z,4.57
2019-02-09T23:56:12.753Z,4.83
2019-02-09T23:58:39.995Z,4.37
